BLQ weather

Bologna Guglielmo Marconi Airport
Bologna, Emilia-Romagna, Italy

Public forecast

Using degrees Celsius for public forecast. Weather courtesy of forecast.io.

Current aviation weather report (METAR) for Bologna Guglielmo Marconi Airport

Retrieved 2019/10/21 18:20 UTC (23 minutes ago):

LIPE 211820Z 07007KT CAVOK 20/17 Q1021

Aviation forecast (TAF) for Bologna Guglielmo Marconi Airport

Retrieved 2019/10/21 18:00 UTC (43 minutes ago):

TAF LIPE 211700Z 2118/2218 VRB05KT 9999 FEW040 BECMG 2120/2122 3000 BR BKN004 TEMPO 2200/2206 0600 FG BECMG 2208/2210 6000 BKN015